Milwaukee, Wisconsin
Current Conditions -  °F | °C
As of 9:52 PM on Friday 24 Oct 2014 (Local Time) from KMKE Reporting Station
Haze Haze  
Wind Chill: 12°   Ceiling: 3900
Heat Index: 12°   Visibility: 4mi
Dew Point: 10°   Wind: 6mph
Humidity: 86%   Direction: 160°SSE
Pressure: 29.92"   Gusts: NA
Location:  43.04°N, 87.91°W
Report Text: KMKE 250252Z 16005KT 4SM BR OVC039 12/10 A2992 RMK AO2 RAB13E47 SLP133 P0000 60000 T01220100 58007
Loading
Personal Weather Stations






























Interactive Weather Map New forecast layout! Learn more

10-Day Weather Forecast

Advertisements
Track Severe Weather on mobile